Flight Track Log - Related Links

Times and Time Zones

All times are in EDT time to prevent confusion due to time zone crossing. See the N513SJ flight status page for this flight to view local times or setup timezone preferences in your user account.


Time Position Orientation Groundspeed Altitude Reporting Facility
EDT Latitude Longitude Course Direction KTS MPH feet Rate Location/Type
Sun 10:46:05 AM 43.0133 -85.9706 123° Southeast 197 227 15,500  Level Cleveland Center
Sun 10:47:07 AM 42.9842 -85.9081 123° Southeast 197 227 15,500 -48 Level Cleveland Center
Sun 10:48:09 AM 42.9550 -85.8456 123° Southeast 197 227 15,400 -96 Descending Cleveland Center
Sun 10:49:12 AM 42.9222 -85.7783 124° Southeast 197 227 15,300 -96 Descending Cleveland Center
Sun 10:50:14 AM 42.8903 -85.7153 125° Southeast 201 231 15,200 -145 Descending Cleveland Center
Sun 10:51:16 AM 42.8594 -85.6511 123° Southeast 201 231 15,000 -97 Descending Cleveland Center
Sun 10:52:18 AM 42.8292 -85.5861 122° Southeast 202 232 15,000  Level Cleveland Center
Sun 10:53:20 AM 42.7997 -85.5239 123° Southeast 200 230 15,000  Level Cleveland Center
Sun 10:54:30 AM 42.7639 -85.4483 123° Southeast 200 230 15,000  Level Chicago Center
Sun 10:55:32 AM 42.7353 -85.3861 122° Southeast 198 228 15,000  Level Chicago Center
Sun 10:56:35 AM 42.6978 -85.3119 125° Southeast 198 228 15,000  Level Chicago Center
Sun 10:57:37 AM 42.6664 -85.2519 125° Southeast 197 227 15,000  Level Chicago Center
Sun 10:58:39 AM 42.6342 -85.1925 126° Southeast 197 227 15,000  Level Chicago Center
Sun 10:59:41 AM 42.6022 -85.1325 126° Southeast 197 227 15,000  Level Chicago Center
Sun 11:00:43 AM 42.5714 -85.0722 125° Southeast 196 226 15,000  Level Chicago Center
Sun 11:01:45 AM 42.5331 -85.0017 126° Southeast 196 226 15,000  Level Chicago Center
Sun 11:02:48 AM 42.5011 -84.9425 126° Southeast 196 226 15,000  Level Chicago Center
Sun 11:03:50 AM 42.4700 -84.8822 125° Southeast 196 226 15,000  Level Chicago Center
Sun 11:04:52 AM 42.4378 -84.8239 127° Southeast 195 224 15,000  Level Chicago Center
Sun 11:05:46 AM 42.4053 -84.7656 127° Southeast 195 224 15,000  Level Cleveland Center
Sun 11:06:48 AM 42.3744 -84.7089 126° Southeast 194 223 15,000  Level Cleveland Center
Sun 11:07:50 AM 42.3397 -84.6450 126° Southeast 194 223 15,000  Level Cleveland Center
Sun 11:08:52 AM 42.3089 -84.5858 125° Southeast 194 223 15,000  Level Cleveland Center
Sun 11:09:55 AM 42.2767 -84.5275 127° Southeast 194 223 15,000  Level Cleveland Center
Sun 11:10:57 AM 42.2453 -84.4678 125° Southeast 195 224 15,000  Level Cleveland Center
Sun 11:11:59 AM 42.2136 -84.4094 126° Southeast 194 223 15,000  Level Cleveland Center
Sun 11:13:01 AM 42.1761 -84.3400 126° Southeast 193 222 15,000  Level Cleveland Center
Sun 11:14:03 AM 42.1439 -84.2814 127° Southeast 193 222 15,000  Level Cleveland Center
Sun 11:15:05 AM 42.1125 -84.2222 126° Southeast 193 222 15,000  Level Cleveland Center
Sun 11:16:07 AM 42.0806 -84.1639 126° Southeast 194 223 15,000  Level Cleveland Center
Sun 11:17:09 AM 42.0481 -84.1044 126° Southeast 194 223 15,000  Level Cleveland Center
Sun 11:18:11 AM 42.0083 -84.0356 128° Southeast 194 223 15,000  Level Cleveland Center
Sun 11:19:14 AM 41.9769 -83.9750 125° Southeast 196 226 15,000  Level Cleveland Center
Sun 11:20:16 AM 41.9444 -83.9161 127° Southeast 196 226 15,000  Level Cleveland Center
Sun 11:21:18 AM 41.9119 -83.8575 127° Southeast 196 226 15,000  Level Cleveland Center
Sun 11:22:20 AM 41.8800 -83.7994 126° Southeast 196 226 15,000  Level Cleveland Center
Sun 11:23:22 AM 41.8403 -83.7292 127° Southeast 196 226 15,000  Level Cleveland Center
Sun 11:24:24 AM 41.8092 -83.6717 126° Southeast 194 223 15,000  Level Cleveland Center
Sun 11:25:26 AM 41.7781 -83.6142 126° Southeast 193 222 15,000  Level Cleveland Center
Sun 11:26:28 AM 41.7456 -83.5575 128° Southeast 193 222 15,000  Level Cleveland Center
Sun 11:27:30 AM 41.7139 -83.5011 127° Southeast 193 222 15,000  Level Cleveland Center
Sun 11:28:33 AM 41.6742 -83.4311 127° Southeast 193 222 15,000  Level Cleveland Center
Sun 11:29:35 AM 41.6425 -83.3739 127° Southeast 193 222 15,000  Level Cleveland Center
Sun 11:30:37 AM 41.6108 -83.3172 127° Southeast 193 222 15,000  Level Cleveland Center
Sun 11:31:39 AM 41.5786 -83.2619 128° Southeast 191 220 15,000  Level Cleveland Center
Sun 11:32:41 AM 41.5464 -83.2033 126° Southeast 191 220 15,000  Level Cleveland Center
Sun 11:33:43 AM 41.5078 -83.1364 128° Southeast 192 221 15,000  Level Cleveland Center
Sun 11:34:45 AM 41.4756 -83.0789 127° Southeast 192 221 15,000  Level Cleveland Center
Sun 11:35:47 AM 41.4433 -83.0219 127° Southeast 192 221 15,000  Level Cleveland Center
Sun 11:36:49 AM 41.4097 -82.9647 128° Southeast 192 221 15,000  Level Cleveland Center
Sun 11:37:51 AM 41.3769 -82.9078 127° Southeast 192 221 15,000  Level Cleveland Center
Sun 11:38:54 AM 41.3439 -82.8506 128° Southeast 193 222 15,000  Level Cleveland Center
Sun 11:39:56 AM 41.3117 -82.7936 127° Southeast 193 222 15,000  Level Cleveland Center
Sun 11:40:58 AM 41.2722 -82.7247 127° Southeast 197 227 15,000  Level Cleveland Center
Sun 11:42:00 AM 41.2386 -82.6675 128° Southeast 198 228 15,000  Level Cleveland Center
Sun 11:43:02 AM 41.2061 -82.6086 126° Southeast 197 227 15,000  Level Cleveland Center
Sun 11:44:04 AM 41.1711 -82.5506 129° Southeast 198 228 15,000  Level Cleveland Center
Sun 11:45:06 AM 41.1389 -82.4931 127° Southeast 196 226 15,000  Level Cleveland Center
Sun 11:46:08 AM 41.1044 -82.4356 128° Southeast 196 226 15,000  Level Cleveland Center
Sun 11:47:10 AM 41.0678 -82.3689 126° Southeast 195 224 15,000  Level Cleveland Center
Sun 11:48:13 AM 41.0339 -82.3125 129° Southeast 195 224 15,000  Level Cleveland Center
Sun 11:49:15 AM 40.9994 -82.2547 128° Southeast 195 224 15,000  Level Cleveland Center
Sun 11:50:17 AM 40.9667 -82.1983 128° Southeast 195 224 15,000  Level Cleveland Center
Sun 11:51:19 AM 40.9336 -82.1403 127° Southeast 195 224 15,000  Level Cleveland Center
Sun 11:52:21 AM 40.8947 -82.0747 128° Southeast 195 224 15,000  Level Cleveland Center
Sun 11:53:23 AM 40.8617 -82.0178 127° Southeast 195 224 15,000  Level Cleveland Center
Sun 11:54:25 AM 40.8272 -81.9608 129° Southeast 195 224 15,000  Level Cleveland Center
Sun 11:55:27 AM 40.7942 -81.9044 128° Southeast 195 224 15,000  Level Cleveland Center
Sun 11:56:30 AM 40.7603 -81.8475 128° Southeast 196 226 15,000  Level Cleveland Center
Sun 11:57:32 AM 40.7269 -81.7906 128° Southeast 196 226 15,000  Level Cleveland Center
Sun 11:58:34 AM 40.6883 -81.7239 127° Southeast 196 226 15,000  Level Cleveland Center
Sun 11:59:36 AM 40.6539 -81.6683 129° Southeast 196 226 15,000  Level Cleveland Center
Sun 12:00:38 PM 40.6194 -81.6125 129° Southeast 195 224 15,000  Level Cleveland Center
Sun 12:01:40 PM 40.5886 -81.5553 125° Southeast 194 223 15,000  Level Cleveland Center
Sun 12:02:42 PM 40.5533 -81.4994 130° Southeast 195 224 15,000  Level Cleveland Center
Sun 12:03:44 PM 40.5206 -81.4444 128° Southeast 193 222 15,000  Level Cleveland Center
Sun 12:04:46 PM 40.4861 -81.3861 128° Southeast 193 222 15,000  Level Cleveland Center
Sun 12:05:49 PM 40.4525 -81.3314 129° Southeast 193 222 15,000  Level Cleveland Center
Sun 12:06:51 PM 40.4128 -81.2653 128° Southeast 193 222 15,000  Level Cleveland Center
Sun 12:07:53 PM 40.3786 -81.2103 129° Southeast 193 222 15,000  Level Cleveland Center
Sun 12:08:55 PM 40.3447 -81.1533 128° Southeast 196 226 15,000  Level Cleveland Center
Sun 12:09:57 PM 40.3114 -81.0967 128° Southeast 198 228 15,000  Level Cleveland Center
Sun 12:10:59 PM 40.2761 -81.0419 130° Southeast 198 228 15,000  Level Cleveland Center
Sun 12:12:02 PM 40.2417 -80.9856 129° Southeast 198 228 15,000  Level Cleveland Center
Sun 12:13:04 PM 40.2011 -80.9183 128° Southeast 198 228 15,000  Level Cleveland Center
Sun 12:14:06 PM 40.1664 -80.8619 129° Southeast 199 229 15,000  Level Cleveland Center
Sun 12:15:08 PM 40.1325 -80.8056 128° Southeast 199 229 15,000  Level Cleveland Center
Sun 12:16:10 PM 40.0983 -80.7489 128° Southeast 199 229 15,000  Level Cleveland Center
Sun 12:17:12 PM 40.0639 -80.6931 129° Southeast 198 228 15,000  Level Cleveland Center
Sun 12:18:14 PM 40.0222 -80.6261 129° Southeast 199 229 15,000  Level Cleveland Center
Sun 12:19:16 PM 39.9883 -80.5714 129° Southeast 198 228 15,000  Level Cleveland Center
Sun 12:20:18 PM 39.9533 -80.5147 129° Southeast 199 229 15,000  Level Cleveland Center
Sun 12:21:21 PM 39.9189 -80.4569 128° Southeast 200 230 15,000  Level Cleveland Center
Sun 12:22:23 PM 39.8833 -80.4006 129° Southeast 200 230 15,000  Level Cleveland Center
Sun 12:23:25 PM 39.8414 -80.3328 129° Southeast 201 231 15,000  Level Cleveland Center
Sun 12:24:27 PM 39.8067 -80.2772 129° Southeast 200 230 15,000  Level Cleveland Center
Sun 12:25:29 PM 39.7711 -80.2211 129° Southeast 200 230 15,000  Level Cleveland Center
Sun 12:26:31 PM 39.7367 -80.1650 129° Southeast 200 230 15,000  Level Cleveland Center
Sun 12:27:33 PM 39.7011 -80.1089 129° Southeast 200 230 15,000  Level Cleveland Center
Sun 12:28:35 PM 39.6656 -80.0536 130° Southeast 202 232 15,000  Level Cleveland Center
Sun 12:29:37 PM 39.6236 -79.9858 129° Southeast 201 231 15,000  Level Cleveland Center
Sun 12:30:39 PM 39.5892 -79.9286 128° Southeast 201 231 15,000  Level Cleveland Center
Sun 12:31:41 PM 39.5528 -79.8733 130° Southeast 202 232 15,000  Level Cleveland Center
Sun 12:32:43 PM 39.5172 -79.8175 130° Southeast 202 232 15,000  Level Cleveland Center
Sun 12:33:45 PM 39.4817 -79.7606 129° Southeast 203 234 15,000  Level Cleveland Center
Sun 12:34:48 PM 39.4394 -79.6919 129° Southeast 203 234 15,000  Level Cleveland Center
Sun 12:35:50 PM 39.4039 -79.6369 130° Southeast 203 234 15,000  Level Cleveland Center
Sun 12:36:52 PM 39.3694 -79.5836 130° Southeast 198 228 15,000  Level Cleveland Center
Sun 12:37:54 PM 39.3339 -79.5275 129° Southeast 199 229 15,000  Level Cleveland Center
Sun 12:38:56 PM 39.2986 -79.4714 129° Southeast 201 231 15,000  Level Cleveland Center
Sun 12:39:58 PM 39.2636 -79.4178 130° Southeast 199 229 15,000  Level Cleveland Center
Sun 12:41:00 PM 39.2219 -79.3517 129° Southeast 199 229 15,000  Level Cleveland Center
Sun 12:41:42 PM 39.2081 -79.3203 120° Southeast 195 224 15,000 -176 Level Washington Center
Sun 12:42:42 PM 39.1700 -79.2675 133° Southeast 195 224 14,700 -397 Descending Washington Center
Sun 12:43:43 PM 39.1261 -79.2039 132° Southeast 214 246 14,200 -504 Descending Washington Center
Sun 12:44:41 PM 39.0883 -79.1431 129° Southeast 214 246 13,700 -600 Descending Washington Center
Sun 12:46:43 PM 39.0144 -79.0300 130° Southeast 209 241 12,400 -659 Descending Washington Center
Sun 12:47:43 PM 38.9783 -78.9747 130° Southeast 209 241 11,700 -661 Descending Washington Center
Sun 12:48:41 PM 38.9403 -78.9197 132° Southeast 209 241 11,100 -504 Descending Washington Center
Sun 12:49:42 PM 38.9064 -78.8675 130° Southeast 204 235 10,700 -473 Descending Washington Center
Sun 12:52:42 PM 38.8061 -78.7164 90° East 193 222 9,200 -548 Descending Washington Center
Sun 12:53:43 PM 38.7739 -78.6697 132° Southeast 182 209 8,500 -807 Descending Washington Center
Sun 12:54:41 PM 38.7439 -78.6233 130° Southeast 177 204 7,600 -1,119 Descending Washington Center
Sun 12:55:41 PM 38.7117 -78.5794 133° Southeast 172 198 6,300 -1,300 Descending Washington Center
Sun 12:57:00 PM 38.6628 -78.5113 133° Southeast  Level FlightAware Approximate
Sun 12:58:00 PM 38.6667 -78.5000 90° East  Level FlightAware Approximate

Login

Don't have an account? Register now (free) for customized features, flight alerts, and more!